Terminal Aerodrome Forecast
Issued by NWS

Home | Current Version | Previous Version | Text Only | Print | Product List | Glossary On
Versions: 1 2 3 4 5 6 7 8 9 10 11 12 13 14 15 16 17 18 19 20 21 22 23 24 25 26
000
FTUS42 TJSJ 282340
TAFKPK
TAF
TKPK 282340Z 2900/2924 VRB05KT P6SM FEW018
     FM291300 04010KT P6SM SCT020
     FM292300 VRB05KT P6SM FEW018
      AMD NOT SKED 2902/2911=

USA.gov is the U.S. government's official web portal to all federal, state and local government web resources and services.